Gravelridge, Arkansas
Current Conditions -  °F | °C
As of 7:15 AM on Tuesday 21 Oct 2014 (Local Time) from KCDH Reporting Station
Overcast Overcast  
Wind Chill: 57°   Ceiling: 4500
Heat Index: 57°   Visibility: 8mi
Dew Point: 55°   Wind: 0mph
Humidity: 94%   Direction: NA
Pressure: 30.08"   Gusts: NA
Location:  33.5451°N, 92.2666°W
Report Text: KCDH 211215Z AUTO 00000KT 8SM OVC045 14/13 A3008 RMK AO2
Loading
Personal Weather Stations






























Interactive Weather Map
Tropical Storm Tracking
New forecast layout! Learn more

10-Day Weather Forecast

Advertisements
Track Severe Weather on mobile